createdAt,value
2017-01-23T00:01:08.861Z,0
2017-01-23T00:03:21.986Z,0
2017-01-23T00:05:35.796Z,0
2017-01-23T00:07:49.466Z,0
2017-01-23T00:10:01.694Z,0
2017-01-23T00:12:16.314Z,0
2017-01-23T00:14:31.408Z,0
2017-01-23T00:16:43.737Z,0
2017-01-23T00:18:58.147Z,0
2017-01-23T00:21:05.436Z,0
2017-01-23T00:23:19.328Z,0
2017-01-23T00:25:31.735Z,0
2017-01-23T00:27:45.979Z,0
2017-01-23T00:30:00.184Z,0
2017-01-23T00:32:14.685Z,0
2017-01-23T00:34:28.439Z,0
2017-01-23T00:36:41.211Z,0
2017-01-23T00:38:53.386Z,0
2017-01-23T00:41:02.547Z,0
2017-01-23T00:43:14.899Z,0
2017-01-23T00:45:29.317Z,0
2017-01-23T00:47:42.548Z,0
2017-01-23T00:49:56.002Z,0
2017-01-23T00:52:03.218Z,0
2017-01-23T00:54:16.380Z,0
2017-01-23T00:56:30.067Z,0
2017-01-23T00:58:44.552Z,0
2017-01-23T01:00:57.505Z,0
2017-01-23T01:03:09.700Z,0
2017-01-23T01:05:21.997Z,0
2017-01-23T01:07:30.439Z,0
2017-01-23T01:09:42.782Z,0
2017-01-23T01:11:55.023Z,0
2017-01-23T01:14:07.481Z,0
2017-01-23T01:18:30.953Z,0
2017-01-23T01:20:45.042Z,0
2017-01-23T01:22:58.499Z,0
2017-01-23T01:25:11.112Z,0
2017-01-23T01:27:23.364Z,0
2017-01-23T01:29:35.504Z,0
2017-01-23T01:31:48.766Z,0
2017-01-23T01:33:56.416Z,0
2017-01-23T01:36:11.276Z,0
2017-01-23T01:38:24.461Z,0
2017-01-23T01:40:36.965Z,0
2017-01-23T01:42:50.177Z,0
2017-01-23T01:45:02.915Z,0
2017-01-23T01:47:15.442Z,0
2017-01-23T01:49:28.324Z,0
2017-01-23T01:51:40.969Z,0
2017-01-23T01:53:43.269Z,0
2017-01-23T01:55:55.748Z,0
2017-01-23T01:58:08.079Z,0
2017-01-23T02:00:21.284Z,0
2017-01-23T02:02:34.788Z,0
2017-01-23T02:04:47.733Z,0
2017-01-23T02:09:14.943Z,0
2017-01-23T02:11:31.527Z,0
2017-01-23T02:13:48.226Z,0
2017-01-23T02:16:00.538Z,0
2017-01-23T02:18:14.801Z,0
2017-01-23T02:20:28.985Z,0
2017-01-23T02:22:41.269Z,0
2017-01-23T02:24:48.534Z,0
2017-01-23T02:27:00.882Z,0
2017-01-23T02:29:13.068Z,0
2017-01-23T02:31:27.060Z,0
2017-01-23T02:33:39.351Z,0
2017-01-23T02:35:41.943Z,0
2017-01-23T02:37:57.399Z,0
2017-01-23T02:40:12.874Z,0
2017-01-23T02:42:26.180Z,0
2017-01-23T02:44:39.885Z,0
2017-01-23T02:46:52.042Z,0
2017-01-23T02:49:05.713Z,0
2017-01-23T02:51:19.683Z,0
2017-01-23T02:53:33.343Z,0
2017-01-23T02:55:41.636Z,0
2017-01-23T02:57:57.192Z,0
2017-01-23T03:00:14.303Z,0
2017-01-23T03:02:28.894Z,0
2017-01-23T03:04:43.864Z,0
2017-01-23T03:06:52.712Z,0
2017-01-23T03:09:05.202Z,0
2017-01-23T03:11:17.776Z,0
2017-01-23T03:13:30.862Z,0
2017-01-23T03:15:39.099Z,0
2017-01-23T03:17:51.664Z,0
2017-01-23T03:20:05.251Z,0
2017-01-23T03:22:17.504Z,0
2017-01-23T03:24:25.591Z,0
2017-01-23T03:26:32.940Z,0
2017-01-23T03:28:45.037Z,0
2017-01-23T03:30:57.952Z,0
2017-01-23T03:33:10.539Z,0
2017-01-23T03:35:23.355Z,0
2017-01-23T03:37:34.550Z,0
2017-01-23T03:39:48.114Z,0
2017-01-23T03:42:04.245Z,0
2017-01-23T03:44:18.745Z,0
2017-01-23T03:46:27.090Z,0
2017-01-23T03:48:41.343Z,0
2017-01-23T03:51:03.108Z,0
2017-01-23T03:53:25.132Z,0
2017-01-23T03:55:46.821Z,0
2017-01-23T03:58:10.231Z,0
2017-01-23T04:00:31.516Z,0
2017-01-23T04:02:51.892Z,0
2017-01-23T04:05:14.930Z,0
2017-01-23T04:07:34.950Z,0
2017-01-23T04:09:47.893Z,0
2017-01-23T04:12:00.506Z,0
2017-01-23T04:14:12.910Z,0
2017-01-23T04:16:25.261Z,0
2017-01-23T04:18:35.851Z,0
2017-01-23T04:20:43.417Z,0
2017-01-23T04:22:56.465Z,0
2017-01-23T04:25:03.932Z,0
2017-01-23T04:27:16.121Z,0
2017-01-23T04:29:28.401Z,0
2017-01-23T04:33:41.408Z,0
2017-01-23T04:35:48.700Z,0
2017-01-23T04:38:01.152Z,0
2017-01-23T04:40:13.337Z,0
2017-01-23T04:42:25.739Z,0
2017-01-23T04:44:38.194Z,0
2017-01-23T04:46:50.641Z,0
2017-01-23T04:49:02.930Z,0
2017-01-23T04:51:15.112Z,0
2017-01-23T04:53:22.704Z,0
2017-01-23T04:55:34.886Z,0
2017-01-23T04:57:42.388Z,0
2017-01-23T04:59:55.101Z,0
2017-01-23T05:02:07.337Z,0
2017-01-23T05:04:19.802Z,0
2017-01-23T05:06:32.119Z,0
2017-01-23T05:08:39.622Z,0
2017-01-23T05:10:51.931Z,0
2017-01-23T05:13:04.287Z,0
2017-01-23T05:15:16.883Z,0
2017-01-23T05:17:29.389Z,0
2017-01-23T05:19:42.271Z,0
2017-01-23T05:21:55.175Z,0
2017-01-23T05:24:07.754Z,0
2017-01-23T05:26:20.155Z,0
2017-01-23T05:28:22.639Z,0
2017-01-23T05:30:30.007Z,0
2017-01-23T05:32:42.777Z,0
2017-01-23T05:34:55.366Z,0
2017-01-23T05:37:07.882Z,0
2017-01-23T05:39:20.185Z,0
2017-01-23T05:41:32.486Z,0
2017-01-23T05:43:45.064Z,0
2017-01-23T05:45:57.859Z,0
2017-01-23T05:48:10.477Z,0
2017-01-23T05:50:21.258Z,0
2017-01-23T05:52:33.900Z,0
2017-01-23T05:54:46.400Z,0
2017-01-23T05:56:59.150Z,0
2017-01-23T05:59:11.436Z,0
2017-01-23T06:01:23.834Z,0
2017-01-23T06:03:36.397Z,0
2017-01-23T06:05:50.373Z,0
2017-01-23T06:08:03.874Z,0
2017-01-23T06:10:16.830Z,0
2017-01-23T06:12:24.341Z,0
2017-01-23T06:14:36.970Z,0
2017-01-23T06:16:49.465Z,0
2017-01-23T06:19:01.791Z,0
2017-01-23T06:21:14.286Z,0
2017-01-23T06:23:21.643Z,0
2017-01-23T06:25:33.875Z,0
2017-01-23T06:27:46.205Z,0
2017-01-23T06:29:58.578Z,0
2017-01-23T06:32:10.938Z,0
2017-01-23T06:34:19.098Z,0
2017-01-23T06:36:31.455Z,0
2017-01-23T06:38:38.990Z,0
2017-01-23T06:40:46.182Z,5
2017-01-23T06:42:59.096Z,5
2017-01-23T06:45:11.625Z,5
2017-01-23T06:47:23.864Z,10
2017-01-23T06:49:36.087Z,10
2017-01-23T06:51:46.588Z,15
2017-01-23T06:53:58.959Z,20
2017-01-23T06:56:11.256Z,25
2017-01-23T06:58:23.492Z,25
2017-01-23T07:00:36.276Z,30
2017-01-23T07:02:48.481Z,35
2017-01-23T07:05:01.183Z,40
2017-01-23T07:07:13.705Z,50
2017-01-23T07:09:26.095Z,55
2017-01-23T07:11:38.540Z,60
2017-01-23T07:13:50.927Z,65
2017-01-23T07:16:03.241Z,75
2017-01-23T07:18:16.211Z,80
2017-01-23T07:20:29.462Z,85
2017-01-23T07:22:42.288Z,95
2017-01-23T07:24:55.125Z,100
2017-01-23T07:27:07.676Z,110
2017-01-23T07:29:20.563Z,115
2017-01-23T07:31:38.247Z,120
2017-01-23T07:33:50.551Z,125
2017-01-23T07:36:03.071Z,135
2017-01-23T07:38:16.265Z,140
2017-01-23T07:40:29.071Z,145
2017-01-23T07:42:42.444Z,155
2017-01-23T07:44:54.813Z,160
2017-01-23T07:47:09.963Z,165
2017-01-23T07:49:23.030Z,175
2017-01-23T07:51:51.525Z,180
2017-01-23T07:54:06.586Z,185
2017-01-23T07:56:19.684Z,195
2017-01-23T07:58:32.313Z,200
2017-01-23T08:00:45.082Z,205
2017-01-23T08:02:52.676Z,215
2017-01-23T08:05:05.479Z,220
2017-01-23T08:07:17.813Z,240
2017-01-23T08:09:34.355Z,275
2017-01-23T08:11:50.883Z,310
2017-01-23T08:14:05.432Z,305
2017-01-23T08:16:17.944Z,300
2017-01-23T08:18:30.360Z,270
2017-01-23T08:20:45.289Z,275
2017-01-23T08:22:58.334Z,280
2017-01-23T08:25:05.766Z,280
2017-01-23T08:27:18.580Z,285
2017-01-23T08:29:32.447Z,295
2017-01-23T08:31:44.890Z,315
2017-01-23T08:33:57.180Z,310
2017-01-23T08:36:09.868Z,315
2017-01-23T08:38:22.208Z,310
2017-01-23T08:40:34.712Z,310
2017-01-23T08:42:47.104Z,315
2017-01-23T08:44:59.537Z,320
2017-01-23T08:47:12.159Z,330
2017-01-23T08:49:19.930Z,330
2017-01-23T08:51:32.634Z,335
2017-01-23T08:53:40.515Z,340
2017-01-23T08:55:54.132Z,350
2017-01-23T08:58:06.992Z,355
2017-01-23T09:00:20.485Z,365
2017-01-23T09:02:35.274Z,375
2017-01-23T09:04:48.429Z,380
2017-01-23T09:07:01.332Z,385
2017-01-23T09:09:08.748Z,390
2017-01-23T09:11:21.146Z,400
2017-01-23T09:13:33.489Z,405
2017-01-23T09:15:45.703Z,415
2017-01-23T09:17:53.203Z,420
2017-01-23T09:20:05.643Z,425
2017-01-23T09:22:18.029Z,435
2017-01-23T09:24:30.374Z,435
2017-01-23T09:26:37.744Z,440
2017-01-23T09:28:50.047Z,445
2017-01-23T09:31:02.258Z,455
2017-01-23T09:33:09.476Z,460
2017-01-23T09:35:21.772Z,465
2017-01-23T09:37:36.832Z,470
2017-01-23T09:39:49.079Z,485
2017-01-23T09:42:01.532Z,510
2017-01-23T09:44:18.127Z,575
2017-01-23T09:46:37.499Z,645
2017-01-23T09:48:45.979Z,675
2017-01-23T09:51:00.061Z,685
2017-01-23T09:53:21.064Z,700
2017-01-23T09:55:33.308Z,715
2017-01-23T09:57:45.573Z,730
2017-01-23T09:59:52.966Z,755
2017-01-23T10:02:00.231Z,770
2017-01-23T10:04:12.516Z,780
2017-01-23T10:06:24.729Z,800
2017-01-23T10:08:32.043Z,815
2017-01-23T10:10:39.421Z,825
2017-01-23T10:12:51.926Z,845
2017-01-23T10:15:04.133Z,860
2017-01-23T10:17:16.487Z,875
2017-01-23T10:19:28.870Z,890
2017-01-23T10:21:41.442Z,910
2017-01-23T10:23:53.832Z,920
2017-01-23T10:26:08.124Z,940
2017-01-23T10:28:15.375Z,950
2017-01-23T10:30:22.628Z,965
2017-01-23T10:32:34.860Z,975
2017-01-23T10:34:47.116Z,985
2017-01-23T10:36:59.353Z,995
2017-01-23T10:39:11.620Z,1010
2017-01-23T10:41:24.225Z,1015
2017-01-23T10:43:36.535Z,1025
2017-01-23T10:45:49.441Z,1040
2017-01-23T10:47:56.656Z,1055
2017-01-23T10:50:09.007Z,1080
2017-01-23T10:52:21.280Z,1160
2017-01-23T10:54:33.660Z,1490
2017-01-23T10:56:45.887Z,1635
2017-01-23T10:58:58.115Z,1665
2017-01-23T11:01:10.565Z,1630
2017-01-23T11:03:22.760Z,1615
2017-01-23T11:05:35.104Z,1655
2017-01-23T11:07:47.386Z,1590
2017-01-23T11:09:59.603Z,1710
2017-01-23T11:12:07.077Z,1660
2017-01-23T11:14:19.408Z,1645
2017-01-23T11:16:31.827Z,1585
2017-01-23T11:18:44.283Z,1550
2017-01-23T11:20:57.313Z,1700
2017-01-23T11:23:09.898Z,1730
2017-01-23T11:25:22.164Z,1600
2017-01-23T11:27:34.616Z,1685
2017-01-23T11:29:47.055Z,1565
2017-01-23T11:31:59.422Z,1655
2017-01-23T11:34:11.893Z,1660
2017-01-23T11:36:24.342Z,1635
2017-01-23T11:40:47.039Z,1675
2017-01-23T11:42:59.283Z,1780
2017-01-23T11:45:11.484Z,1685
2017-01-23T11:47:23.665Z,1515
2017-01-23T11:49:30.935Z,1625
2017-01-23T11:51:43.135Z,1615
2017-01-23T11:53:55.672Z,1540
2017-01-23T11:56:08.398Z,1515
2017-01-23T11:58:20.564Z,1600
2017-01-23T12:00:27.839Z,1535
2017-01-23T12:02:40.400Z,1510
2017-01-23T12:04:52.717Z,1525
2017-01-23T12:07:05.188Z,1385
2017-01-23T12:09:19.729Z,1340
2017-01-23T12:11:31.976Z,1280
2017-01-23T12:13:44.379Z,1320
2017-01-23T12:15:56.682Z,1390
2017-01-23T12:18:09.125Z,1475
2017-01-23T12:20:21.284Z,1435
2017-01-23T12:22:28.695Z,1320
2017-01-23T12:24:41.136Z,1295
2017-01-23T12:26:53.584Z,1060
2017-01-23T12:29:06.206Z,1090
2017-01-23T12:31:19.084Z,935
2017-01-23T12:33:31.521Z,1025
2017-01-23T12:35:43.836Z,1175
2017-01-23T12:37:56.115Z,960
2017-01-23T12:40:08.351Z,885
2017-01-23T12:42:15.680Z,905
2017-01-23T12:44:22.928Z,925
2017-01-23T12:46:35.470Z,905
2017-01-23T12:48:47.785Z,1010
2017-01-23T12:51:00.293Z,905
2017-01-23T12:53:12.799Z,860
2017-01-23T12:55:20.279Z,845
2017-01-23T12:57:32.674Z,845
2017-01-23T12:59:46.941Z,885
2017-01-23T13:02:00.602Z,960
2017-01-23T13:04:13.271Z,840
2017-01-23T13:06:26.543Z,925
2017-01-23T13:08:44.120Z,815
2017-01-23T13:11:13.084Z,995
2017-01-23T13:13:45.178Z,850
2017-01-23T13:16:01.323Z,850
2017-01-23T13:18:13.741Z,835
2017-01-23T13:20:26.092Z,815
2017-01-23T13:22:38.479Z,830
2017-01-23T13:24:50.958Z,865
2017-01-23T13:27:05.013Z,875
2017-01-23T13:29:19.405Z,765
2017-01-23T13:31:31.821Z,860
2017-01-23T13:33:44.860Z,855
2017-01-23T13:35:57.910Z,760
2017-01-23T13:38:10.244Z,795
2017-01-23T13:40:25.178Z,930
2017-01-23T13:42:37.650Z,855
2017-01-23T13:44:50.005Z,890
2017-01-23T13:47:02.407Z,800
2017-01-23T13:49:14.644Z,895
2017-01-23T13:51:27.095Z,880
2017-01-23T13:53:39.588Z,885
2017-01-23T13:55:52.084Z,860
2017-01-23T13:58:04.952Z,830
2017-01-23T14:00:17.446Z,815
2017-01-23T14:02:30.041Z,795
2017-01-23T14:04:42.524Z,725
2017-01-23T14:06:49.958Z,755
2017-01-23T14:09:02.745Z,815
2017-01-23T14:11:15.180Z,755
2017-01-23T14:13:27.646Z,735
2017-01-23T14:15:40.297Z,740
2017-01-23T14:17:48.154Z,620
2017-01-23T14:19:55.690Z,670
2017-01-23T14:22:08.258Z,610
2017-01-23T14:24:20.901Z,500
2017-01-23T14:26:23.440Z,485
2017-01-23T14:28:35.782Z,470
2017-01-23T14:30:48.466Z,460
2017-01-23T14:33:00.989Z,450
2017-01-23T14:35:13.683Z,440
2017-01-23T14:37:21.820Z,425
2017-01-23T14:39:37.167Z,405
2017-01-23T14:41:49.978Z,385
2017-01-23T14:44:02.338Z,370
2017-01-23T14:46:14.906Z,345
2017-01-23T14:48:22.530Z,335
2017-01-23T14:50:35.578Z,320
2017-01-23T14:52:48.487Z,305
2017-01-23T14:55:01.572Z,290
2017-01-23T14:57:14.162Z,280
2017-01-23T14:59:27.271Z,265
2017-01-23T15:01:40.768Z,245
2017-01-23T15:03:53.179Z,235
2017-01-23T15:06:05.455Z,225
2017-01-23T15:08:17.818Z,215
2017-01-23T15:10:30.074Z,205
2017-01-23T15:12:42.442Z,195
2017-01-23T15:14:55.043Z,185
2017-01-23T15:17:07.358Z,170
2017-01-23T15:19:20.551Z,160
2017-01-23T15:21:32.998Z,145
2017-01-23T15:23:45.853Z,130
2017-01-23T15:25:53.250Z,120
2017-01-23T15:28:06.399Z,115
2017-01-23T15:30:19.195Z,110
2017-01-23T15:32:31.829Z,100
2017-01-23T15:34:39.608Z,90
2017-01-23T15:36:52.178Z,85
2017-01-23T15:39:05.692Z,80
2017-01-23T15:41:18.670Z,70
2017-01-23T15:43:32.267Z,60
2017-01-23T15:45:44.761Z,55
2017-01-23T15:47:57.342Z,50
2017-01-23T15:50:05.388Z,45
2017-01-23T15:52:18.699Z,35
2017-01-23T15:54:33.189Z,30
2017-01-23T15:56:48.568Z,25
2017-01-23T15:59:03.860Z,20
2017-01-23T16:01:16.349Z,15
2017-01-23T16:03:27.650Z,15
2017-01-23T16:05:42.620Z,10
2017-01-23T16:07:55.544Z,10
2017-01-23T16:10:09.246Z,5
2017-01-23T16:12:22.197Z,5
2017-01-23T16:14:31.895Z,0
2017-01-23T16:16:49.010Z,0
2017-01-23T16:19:01.550Z,0
2017-01-23T16:21:10.505Z,0
2017-01-23T16:23:23.588Z,0
2017-01-23T16:25:36.620Z,0
2017-01-23T16:27:52.197Z,0
2017-01-23T16:30:04.781Z,0
2017-01-23T16:32:17.005Z,0
2017-01-23T16:34:30.082Z,0
2017-01-23T16:36:38.928Z,0
2017-01-23T16:38:53.278Z,0
2017-01-23T16:41:05.643Z,0
2017-01-23T16:43:19.331Z,0
2017-01-23T16:45:32.344Z,0
2017-01-23T16:47:40.015Z,0
2017-01-23T16:49:43.518Z,0
2017-01-23T16:51:55.909Z,0
2017-01-23T16:54:08.426Z,0
2017-01-23T16:56:21.193Z,0
2017-01-23T16:58:24.289Z,0
2017-01-23T17:00:26.570Z,0
2017-01-23T17:02:35.134Z,0
2017-01-23T17:04:47.359Z,0
2017-01-23T17:06:59.776Z,0
2017-01-23T17:09:12.325Z,0
2017-01-23T17:11:20.174Z,0
2017-01-23T17:13:33.295Z,0
2017-01-23T17:15:46.077Z,0
2017-01-23T17:17:58.520Z,0
2017-01-23T17:20:12.827Z,0
2017-01-23T17:22:26.740Z,0
2017-01-23T17:24:40.582Z,0
2017-01-23T17:26:53.751Z,0
2017-01-23T17:29:01.509Z,0
2017-01-23T17:31:13.911Z,0
2017-01-23T17:33:26.394Z,0
2017-01-23T17:35:39.929Z,0
2017-01-23T17:37:47.947Z,0
2017-01-23T17:39:55.927Z,0
2017-01-23T17:42:08.466Z,0
2017-01-23T17:44:22.221Z,0
2017-01-23T17:46:34.778Z,0
2017-01-23T17:48:48.944Z,0
2017-01-23T21:50:15.661Z,0
2017-01-23T21:52:28.939Z,0
2017-01-23T21:54:42.474Z,0
2017-01-23T21:56:54.949Z,0
2017-01-23T21:59:03.340Z,0
2017-01-23T22:01:41.162Z,0
2017-01-23T22:03:58.773Z,0
2017-01-23T22:06:12.302Z,0
2017-01-23T22:08:25.669Z,0
2017-01-23T22:10:45.206Z,0
2017-01-23T22:13:05.844Z,0
2017-01-23T22:15:17.206Z,0
2017-01-23T22:17:31.272Z,0
2017-01-23T22:19:40.931Z,0
2017-01-23T22:21:54.022Z,0
2017-01-23T22:24:06.612Z,0
2017-01-23T22:26:19.147Z,0
2017-01-23T22:28:29.670Z,0
2017-01-23T22:30:42.421Z,0
2017-01-23T22:32:56.555Z,0
2017-01-23T22:35:13.744Z,0
2017-01-23T22:37:53.065Z,0
2017-01-23T22:40:08.715Z,0
2017-01-23T22:42:48.361Z,0
2017-01-23T22:45:04.931Z,0
2017-01-23T22:47:17.623Z,0
2017-01-23T22:49:30.165Z,0
2017-01-23T22:51:38.990Z,0
2017-01-23T22:53:52.710Z,0
2017-01-23T22:56:05.091Z,0
2017-01-23T22:58:18.273Z,0
2017-01-23T23:00:32.779Z,0
2017-01-23T23:02:45.035Z,0
2017-01-23T23:04:57.351Z,0
2017-01-23T23:07:10.078Z,0
2017-01-23T23:09:23.511Z,0
2017-01-23T23:11:41.557Z,0
2017-01-23T23:13:58.170Z,0
2017-01-23T23:16:06.065Z,0
2017-01-23T23:18:18.724Z,0
2017-01-23T23:20:31.712Z,0
2017-01-23T23:22:44.878Z,0
2017-01-23T23:24:57.899Z,0
2017-01-23T23:27:10.601Z,0
2017-01-23T23:29:17.895Z,0
2017-01-23T23:31:30.496Z,0
2017-01-23T23:33:43.590Z,0
2017-01-23T23:35:56.622Z,0
2017-01-23T23:38:09.911Z,0
2017-01-23T23:40:22.182Z,0
2017-01-23T23:42:30.702Z,0
2017-01-23T23:44:43.360Z,0
2017-01-23T23:46:55.584Z,0
2017-01-23T23:49:08.194Z,0
2017-01-23T23:51:21.954Z,0
2017-01-23T23:53:34.263Z,0
2017-01-23T23:55:47.037Z,0
2017-01-23T23:58:04.548Z,0
